createdAt,value
2018-12-23T00:00:08.378Z,100896.08
2018-12-23T00:02:37.050Z,100900.38
2018-12-23T00:05:11.454Z,100887.39
2018-12-23T00:07:36.466Z,100888.70
2018-12-23T00:10:05.337Z,100890.87
2018-12-23T00:12:34.012Z,100886.52
2018-12-23T00:15:02.898Z,100888.67
2018-12-23T00:17:31.398Z,100886.48
2018-12-23T00:20:00.150Z,100885.61
2018-12-23T00:22:28.783Z,100882.23
2018-12-23T00:24:57.543Z,100873.62
2018-12-23T00:27:26.042Z,100879.69
2018-12-23T00:29:54.653Z,100877.98
2018-12-23T00:32:23.242Z,100880.55
2018-12-23T00:34:51.873Z,100878.79
2018-12-23T00:37:21.382Z,100834.46
2018-12-23T00:39:49.934Z,100876.19
2018-12-23T00:42:18.954Z,100880.53
2018-12-23T00:44:47.523Z,100880.06
2018-12-23T00:47:16.228Z,100878.78
2018-12-23T00:49:45.087Z,100880.53
2018-12-23T00:52:13.834Z,100878.35
2018-12-23T00:54:42.459Z,100888.30
2018-12-23T00:57:10.974Z,100871.84
2018-12-23T00:59:40.210Z,100757.75
2018-12-23T01:02:08.791Z,100873.16
2018-12-23T01:04:37.668Z,100826.66
2018-12-23T01:07:06.258Z,100874.45
2018-12-23T01:09:36.270Z,100873.58
2018-12-23T01:12:05.198Z,100873.16
2018-12-23T01:14:34.057Z,100874.45
2018-12-23T01:17:02.588Z,100875.32
2018-12-23T01:19:31.253Z,100870.97
2018-12-23T01:21:59.773Z,100846.03
2018-12-23T01:24:28.286Z,100879.65
2018-12-23T01:26:57.152Z,100879.65
2018-12-23T01:29:25.708Z,100876.65
2018-12-23T01:31:54.401Z,100843.52
2018-12-23T01:34:23.288Z,100881.81
2018-12-23T01:36:52.172Z,100881.80
2018-12-23T01:39:20.877Z,100880.52
2018-12-23T01:41:49.426Z,100879.22
2018-12-23T01:44:18.082Z,100882.23
2018-12-23T01:46:46.678Z,100879.22
2018-12-23T01:49:15.582Z,100774.61
2018-12-23T01:51:44.190Z,100875.32
2018-12-23T01:54:12.966Z,100877.03
2018-12-23T01:56:41.503Z,100876.63
2018-12-23T01:59:10.270Z,100870.16
2018-12-23T02:01:38.782Z,100872.74
2018-12-23T02:04:07.442Z,100870.58
2018-12-23T02:06:35.999Z,100853.81
2018-12-23T02:09:06.630Z,100877.52
2018-12-23T02:11:35.266Z,100845.19
2018-12-23T02:14:03.800Z,100878.81
2018-12-23T02:16:32.619Z,100871.89
2018-12-23T02:19:01.112Z,100870.17
2018-12-23T02:21:30.006Z,100870.17
2018-12-23T02:23:58.519Z,100874.89
2018-12-23T02:26:27.336Z,100877.95
2018-12-23T02:28:55.892Z,100877.94
2018-12-23T02:31:24.500Z,100874.04
2018-12-23T02:33:53.219Z,100872.74
2018-12-23T02:36:21.864Z,100879.65
2018-12-23T02:38:50.859Z,100874.04
2018-12-23T02:41:19.376Z,100879.23
2018-12-23T02:43:48.056Z,100877.48
2018-12-23T02:46:16.596Z,100871.86
2018-12-23T02:48:45.117Z,100875.77
2018-12-23T02:51:13.755Z,100874.47
2018-12-23T02:53:42.343Z,100888.33
2018-12-23T02:56:11.236Z,100881.39
2018-12-23T02:58:39.941Z,100879.66
2018-12-23T03:04:21.617Z,100882.21
2018-12-23T03:06:51.394Z,100878.38
2018-12-23T03:09:21.250Z,100882.28
2018-12-23T03:11:51.009Z,100879.70
2018-12-23T03:14:20.822Z,100874.93
2018-12-23T03:16:50.544Z,100873.64
2018-12-23T03:19:20.544Z,100875.39
2018-12-23T03:21:50.400Z,100882.30
2018-12-23T03:24:20.324Z,100881.41
2018-12-23T03:26:50.083Z,100879.27
2018-12-23T03:29:20.286Z,100870.19
2018-12-23T03:31:49.993Z,100873.62
2018-12-23T03:34:19.966Z,100873.62
2018-12-23T03:36:49.699Z,100869.33
2018-12-23T03:39:19.474Z,100871.02
2018-12-23T03:41:49.239Z,100845.59
2018-12-23T03:44:37.918Z,100861.52
2018-12-23T03:47:07.730Z,100858.90
2018-12-23T03:52:11.059Z,100855.41
2018-12-23T03:54:41.031Z,100858.51
2018-12-23T03:57:10.754Z,100860.64
2018-12-23T03:59:40.735Z,100867.58
2018-12-23T04:02:10.445Z,100858.02
2018-12-23T04:04:40.246Z,100859.77
2018-12-23T04:07:10.029Z,100826.58
2018-12-23T04:09:39.765Z,100863.20
2018-12-23T04:12:09.714Z,100868.41
2018-12-23T04:14:39.532Z,100870.15
2018-12-23T04:17:09.335Z,100869.27
2018-12-23T04:19:39.103Z,100872.77
2018-12-23T04:22:09.034Z,100871.00
2018-12-23T04:27:27.426Z,100864.53
2018-12-23T04:29:57.484Z,100861.52
2018-12-23T04:32:27.303Z,100862.38
2018-12-23T04:34:57.377Z,100860.63
2018-12-23T04:37:27.114Z,100862.38
2018-12-23T04:39:57.348Z,100860.63
2018-12-23T04:42:27.191Z,100858.03
2018-12-23T04:44:56.941Z,100858.02
2018-12-23T04:47:26.756Z,100851.52
2018-12-23T04:49:56.551Z,100850.67
2018-12-23T04:52:26.374Z,100847.63
2018-12-23T04:54:56.128Z,100842.45
2018-12-23T04:57:25.973Z,100849.38
2018-12-23T04:59:55.801Z,100846.31
2018-12-23T05:02:25.834Z,100851.95
2018-12-23T05:04:55.599Z,100848.91
2018-12-23T05:07:44.171Z,100846.30
2018-12-23T05:10:25.560Z,100840.26
2018-12-23T05:12:55.319Z,100843.26
2018-12-23T05:15:25.150Z,100842.38
2018-12-23T05:17:54.882Z,100845.88
2018-12-23T05:20:24.879Z,100841.55
2018-12-23T05:22:54.599Z,100838.96
2018-12-23T05:25:24.719Z,100839.38
2018-12-23T05:28:13.579Z,100837.20
2018-12-23T05:30:43.356Z,100841.55
2018-12-23T05:33:13.316Z,100851.06
2018-12-23T05:36:02.241Z,100843.67
2018-12-23T05:41:20.587Z,100842.28
2018-12-23T05:43:50.627Z,100843.16
2018-12-23T05:46:20.375Z,100800.98
2018-12-23T05:48:50.307Z,100854.84
2018-12-23T05:51:20.027Z,100857.89
2018-12-23T05:53:49.865Z,100846.64
2018-12-23T05:56:19.609Z,100794.16
2018-12-23T05:58:49.394Z,100856.22
2018-12-23T06:01:19.180Z,100806.25
2018-12-23T06:03:48.962Z,100852.75
2018-12-23T06:06:18.742Z,100849.33
2018-12-23T06:08:48.533Z,100850.63
2018-12-23T06:11:18.299Z,100849.33
2018-12-23T06:13:48.023Z,100852.77
2018-12-23T06:16:17.931Z,100856.67
2018-12-23T06:18:47.679Z,100861.45
2018-12-23T06:21:17.863Z,100861.03
2018-12-23T06:23:47.605Z,100859.73
2018-12-23T06:26:28.830Z,100862.75
2018-12-23T06:28:58.539Z,100871.44
2018-12-23T06:31:47.121Z,100871.88
2018-12-23T06:34:17.019Z,100871.01
2018-12-23T06:36:46.731Z,100870.58
2018-12-23T06:39:16.600Z,100867.55
2018-12-23T06:41:46.333Z,100868.86
2018-12-23T06:44:16.169Z,100865.80
2018-12-23T06:46:45.905Z,100819.75
2018-12-23T06:49:15.914Z,100883.98
2018-12-23T06:51:45.617Z,100879.70
2018-12-23T06:54:34.271Z,100878.81
2018-12-23T06:57:04.343Z,100880.58
2018-12-23T06:59:34.072Z,100880.55
2018-12-23T07:02:22.773Z,100893.54
2018-12-23T07:05:11.423Z,100889.66
2018-12-23T07:07:41.338Z,100905.66
2018-12-23T07:10:30.152Z,100906.52
2018-12-23T07:12:59.921Z,100907.81
2018-12-23T07:15:30.120Z,100913.84
2018-12-23T07:17:59.835Z,100906.94
2018-12-23T07:20:29.579Z,100908.66
2018-12-23T07:22:59.333Z,100916.03
2018-12-23T07:25:29.107Z,100910.83
2018-12-23T07:28:10.279Z,100912.13
2018-12-23T07:30:40.180Z,100906.50
2018-12-23T07:33:09.947Z,100916.02
2018-12-23T07:35:39.817Z,100917.74
2018-12-23T07:38:09.611Z,100926.41
2018-12-23T07:40:39.443Z,100922.95
2018-12-23T07:43:09.243Z,100907.44
2018-12-23T07:45:39.100Z,100919.04
2018-12-23T07:48:08.934Z,100927.69
2018-12-23T07:53:13.622Z,100926.33
2018-12-23T07:55:43.413Z,100932.36
2018-12-23T07:58:13.751Z,100937.13
2018-12-23T08:00:44.657Z,100928.45
2018-12-23T08:06:08.380Z,100929.71
2018-12-23T08:08:38.150Z,100934.05
2018-12-23T08:11:07.987Z,100934.00
2018-12-23T08:13:37.822Z,100922.76
2018-12-23T08:16:26.535Z,100937.05
2018-12-23T08:18:56.584Z,100944.47
2018-12-23T08:21:26.308Z,100939.31
2018-12-23T08:23:56.284Z,100936.72
2018-12-23T08:26:26.028Z,100934.55
2018-12-23T08:28:56.039Z,100935.45
2018-12-23T08:31:25.762Z,100930.69
2018-12-23T08:33:55.506Z,100937.16
2018-12-23T08:36:44.250Z,100908.36
2018-12-23T08:39:13.986Z,100949.33
2018-12-23T08:41:43.762Z,100944.52
2018-12-23T08:44:13.543Z,100943.21
2018-12-23T08:46:43.288Z,100938.02
2018-12-23T08:52:01.744Z,100935.84
2018-12-23T08:54:31.583Z,100948.41
2018-12-23T08:57:01.429Z,100952.72
2018-12-23T08:59:50.260Z,100945.40
2018-12-23T09:02:19.974Z,100944.50
2018-12-23T09:04:50.111Z,100944.48
2018-12-23T09:07:39.253Z,100941.87
2018-12-23T09:10:09.013Z,100952.24
2018-12-23T09:12:39.253Z,100953.09
2018-12-23T09:17:44.090Z,100948.77
2018-12-23T09:20:14.147Z,100948.76
2018-12-23T09:22:43.895Z,100945.28
2018-12-23T09:25:13.747Z,100953.07
2018-12-23T09:27:43.534Z,100946.17
2018-12-23T09:30:13.549Z,100952.67
2018-12-23T09:32:43.361Z,100944.42
2018-12-23T09:35:13.347Z,100944.42
2018-12-23T09:37:43.264Z,100908.28
2018-12-23T09:40:13.027Z,100955.67
2018-12-23T09:42:42.879Z,100955.69
2018-12-23T09:45:12.601Z,100954.84
2018-12-23T09:47:42.521Z,100949.64
2018-12-23T09:50:12.297Z,100957.41
2018-12-23T09:52:42.035Z,100952.22
2018-12-23T09:55:30.856Z,100954.82
2018-12-23T09:58:00.616Z,100945.71
2018-12-23T10:00:30.646Z,100958.71
2018-12-23T10:03:00.381Z,100963.45
2018-12-23T10:05:30.317Z,100964.73
2018-12-23T10:08:00.097Z,100957.44
2018-12-23T10:10:30.118Z,100973.00
2018-12-23T10:12:59.909Z,100959.55
2018-12-23T10:15:29.765Z,100962.59
2018-12-23T10:17:59.584Z,100930.29
2018-12-23T10:20:29.738Z,100958.22
2018-12-23T10:22:59.629Z,100956.92
2018-12-23T10:25:29.600Z,100960.82
2018-12-23T10:27:59.638Z,100959.94
2018-12-23T10:30:29.382Z,100958.16
2018-12-23T10:32:59.639Z,100952.97
2018-12-23T10:35:29.359Z,100956.48
2018-12-23T10:37:59.316Z,100957.38
2018-12-23T10:40:29.064Z,100964.28
2018-12-23T10:43:01.281Z,100961.26
2018-12-23T10:45:30.668Z,100962.14
2018-12-23T10:48:00.513Z,100968.20
2018-12-23T10:50:30.262Z,100966.92
2018-12-23T10:53:00.031Z,100967.81
2018-12-23T10:55:29.890Z,100971.73
2018-12-23T10:57:59.747Z,100973.91
2018-12-23T11:00:29.817Z,100963.98
2018-12-23T11:05:35.045Z,100964.42
2018-12-23T11:08:05.316Z,100962.71
2018-12-23T11:10:35.341Z,100962.71
2018-12-23T11:13:05.166Z,100961.81
2018-12-23T11:15:35.184Z,100961.00
2018-12-23T11:18:05.568Z,100966.23
2018-12-23T11:20:35.551Z,100961.82
2018-12-23T11:23:05.294Z,100964.81
2018-12-23T11:25:35.330Z,100915.23
2018-12-23T11:28:05.137Z,100963.97
2018-12-23T11:30:35.199Z,100961.00
2018-12-23T11:33:04.959Z,100961.86
2018-12-23T11:35:35.084Z,100967.48
2018-12-23T11:38:04.919Z,100962.28
2018-12-23T11:40:35.245Z,100959.27
2018-12-23T11:43:04.967Z,100954.03
2018-12-23T11:45:34.980Z,100948.45
2018-12-23T11:48:04.837Z,100911.45
2018-12-23T11:50:34.713Z,100947.64
2018-12-23T11:53:04.517Z,100941.13
2018-12-23T11:55:53.178Z,100948.07
2018-12-23T11:58:22.947Z,100948.94
2018-12-23T12:00:52.734Z,100948.52
2018-12-23T12:06:11.135Z,100952.85
2018-12-23T12:08:43.798Z,100954.16
2018-12-23T12:11:12.343Z,100950.72
2018-12-23T12:14:01.091Z,100953.32
2018-12-23T12:16:31.020Z,100899.45
2018-12-23T12:19:00.756Z,100872.25
2018-12-23T12:21:30.680Z,100961.97
2018-12-23T12:24:00.427Z,100954.63
2018-12-23T12:26:30.325Z,100954.20
2018-12-23T12:29:00.064Z,100905.09
2018-12-23T12:31:30.024Z,100943.39
2018-12-23T12:33:59.818Z,100947.30
2018-12-23T12:36:29.774Z,100946.41
2018-12-23T12:38:59.534Z,100948.20
2018-12-23T12:41:29.345Z,100944.73
2018-12-23T12:43:59.119Z,100942.13
2018-12-23T12:46:28.950Z,100944.73
2018-12-23T12:48:58.894Z,100941.26
2018-12-23T12:51:28.718Z,100939.98
2018-12-23T12:53:58.643Z,100939.58
2018-12-23T12:56:28.418Z,100945.65
2018-12-23T12:59:16.971Z,100953.47
2018-12-23T13:01:46.807Z,100949.57
2018-12-23T13:04:16.543Z,100960.40
2018-12-23T13:06:46.564Z,100957.41
2018-12-23T13:09:16.293Z,100958.72
2018-12-23T13:11:46.260Z,100958.30
2018-12-23T13:14:16.018Z,100911.33
2018-12-23T13:16:46.252Z,100967.39
2018-12-23T13:19:16.040Z,100916.53
2018-12-23T13:21:45.991Z,100969.55
2018-12-23T13:24:15.710Z,100970.45
2018-12-23T13:26:45.548Z,100960.08
2018-12-23T13:29:15.365Z,100914.80
2018-12-23T13:31:45.247Z,100964.83
2018-12-23T13:34:15.002Z,100964.85
2018-12-23T13:36:44.737Z,100964.42
2018-12-23T13:39:14.564Z,100966.59
2018-12-23T13:42:22.163Z,100966.59
2018-12-23T13:45:29.704Z,100966.61
2018-12-23T13:48:23.296Z,100965.78
2018-12-23T13:51:30.804Z,100922.63
2018-12-23T13:54:38.631Z,100973.58
2018-12-23T13:57:46.157Z,100975.73
2018-12-23T14:00:53.745Z,100979.63
2018-12-23T14:04:01.266Z,100983.97
2018-12-23T14:07:08.849Z,100982.22
2018-12-23T14:10:16.500Z,100990.46
2018-12-23T14:12:46.210Z,100994.34
2018-12-23T14:15:16.117Z,100991.30
2018-12-23T14:17:47.717Z,100996.94
2018-12-23T14:20:17.397Z,101000.38
2018-12-23T14:22:47.181Z,101004.72
2018-12-23T14:25:35.809Z,100999.53
2018-12-23T14:28:05.734Z,101000.83
2018-12-23T14:30:35.479Z,100971.03
2018-12-23T14:33:05.356Z,101000.83
2018-12-23T14:35:35.192Z,100995.23
2018-12-23T14:38:04.916Z,100995.23
2018-12-23T14:40:53.697Z,100993.93
2018-12-23T14:43:23.649Z,100987.00
2018-12-23T14:45:53.370Z,100985.28
2018-12-23T14:53:52.487Z,100987.44
2018-12-23T14:56:22.315Z,100964.09
2018-12-23T14:58:52.125Z,100985.25
2018-12-23T15:01:22.463Z,100993.02
2018-12-23T15:03:52.203Z,100991.70
2018-12-23T15:06:22.126Z,100991.27
2018-12-23T15:08:51.925Z,100996.87
2018-12-23T15:11:21.833Z,100991.27
2018-12-23T15:13:51.595Z,100990.84
2018-12-23T15:16:21.602Z,101001.19
2018-12-23T15:18:52.285Z,100996.02
2018-12-23T15:21:22.208Z,101000.31
2018-12-23T15:23:52.159Z,100957.99
2018-12-23T15:26:22.019Z,100999.45
2018-12-23T15:28:51.758Z,101008.11
2018-12-23T15:31:21.688Z,101002.07
2018-12-23T15:33:54.071Z,100999.49
2018-12-23T15:36:24.564Z,101002.97
2018-12-23T15:38:54.622Z,101004.69
2018-12-23T15:41:24.384Z,100910.57
2018-12-23T15:43:54.423Z,100999.94
2018-12-23T15:46:24.250Z,101004.70
2018-12-23T15:48:54.099Z,101000.41
2018-12-23T15:51:42.623Z,101003.41
2018-12-23T15:54:12.389Z,101003.00
2018-12-23T15:57:01.120Z,101001.25
2018-12-23T15:59:30.932Z,100997.36
2018-12-23T16:02:00.720Z,101003.00
2018-12-23T16:04:30.644Z,101009.02
2018-12-23T16:07:00.464Z,101005.59
2018-12-23T16:09:30.208Z,101016.80
2018-12-23T16:12:00.018Z,101011.20
2018-12-23T16:14:29.925Z,101009.02
2018-12-23T16:16:59.885Z,101014.66
2018-12-23T16:19:29.887Z,101017.25
2018-12-23T16:21:59.879Z,101019.84
2018-12-23T16:24:29.678Z,101017.67
2018-12-23T16:26:59.796Z,101017.67
2018-12-23T16:29:29.566Z,100968.44
2018-12-23T16:31:59.480Z,101012.08
2018-12-23T16:34:48.391Z,101010.33
2018-12-23T16:37:18.244Z,100975.79
2018-12-23T16:39:48.088Z,101014.21
2018-12-23T16:42:36.634Z,101012.91
2018-12-23T16:51:32.886Z,101019.84
2018-12-23T16:54:02.378Z,101020.27
2018-12-23T16:56:31.715Z,101021.14
2018-12-23T16:59:01.099Z,101023.73
2018-12-23T17:01:30.581Z,101024.57
2018-12-23T17:03:59.881Z,101022.86
2018-12-23T17:06:29.281Z,101029.33
2018-12-23T17:08:58.685Z,101025.45
2018-12-23T17:11:28.060Z,101025.45
2018-12-23T17:13:57.539Z,101026.74
2018-12-23T17:16:26.852Z,101033.22
2018-12-23T17:18:56.224Z,101033.22
2018-12-23T17:21:25.535Z,101037.10
2018-12-23T17:23:55.098Z,101036.23
2018-12-23T17:26:24.483Z,101033.63
2018-12-23T17:29:12.797Z,101039.27
2018-12-23T17:31:42.357Z,101030.62
2018-12-23T17:34:30.765Z,101030.19
2018-12-23T17:37:00.099Z,101033.62
2018-12-23T17:39:29.503Z,101038.38
2018-12-23T17:41:58.831Z,101036.64
2018-12-23T17:44:28.198Z,101037.94
2018-12-23T17:46:57.510Z,101040.94
2018-12-23T17:49:26.880Z,101041.38
2018-12-23T17:51:56.332Z,101043.51
2018-12-23T17:54:44.550Z,101040.08
2018-12-23T17:57:13.841Z,101053.86
2018-12-23T17:59:43.448Z,101045.25
2018-12-23T18:02:12.763Z,101053.02
2018-12-23T18:05:01.128Z,101052.14
2018-12-23T18:07:30.740Z,101063.38
2018-12-23T18:10:00.334Z,101068.10
2018-12-23T18:12:29.873Z,101070.27
2018-12-23T18:15:18.423Z,101064.69
2018-12-23T18:18:06.975Z,101061.65
2018-12-23T18:20:36.465Z,101069.00
2018-12-23T18:23:05.929Z,101067.72
2018-12-23T18:25:54.365Z,100976.95
2018-12-23T18:28:42.776Z,101062.53
2018-12-23T18:31:12.206Z,101078.92
2018-12-23T18:33:41.776Z,101075.91
2018-12-23T18:36:11.083Z,101071.61
2018-12-23T18:38:40.678Z,101015.88
2018-12-23T18:41:10.154Z,101072.05
2018-12-23T18:43:39.765Z,101073.77
2018-12-23T18:46:09.067Z,101079.82
2018-12-23T18:48:38.688Z,101073.77
2018-12-23T18:51:07.999Z,101076.36
2018-12-23T18:53:37.584Z,101084.13
2018-12-23T18:56:06.967Z,101080.70
2018-12-23T18:58:36.558Z,101086.72
2018-12-23T19:01:07.009Z,101082.84
2018-12-23T19:03:36.636Z,101091.92
2018-12-23T19:06:07.918Z,101090.63
2018-12-23T19:09:15.276Z,101089.78
2018-12-23T19:12:11.576Z,101089.79
2018-12-23T19:18:11.138Z,101092.39
2018-12-23T19:21:19.534Z,101092.81
2018-12-23T19:24:16.478Z,101078.14
2018-12-23T19:27:23.903Z,101090.23
2018-12-23T19:30:31.183Z,101095.41
2018-12-23T19:33:38.557Z,101094.99
2018-12-23T19:36:46.039Z,101091.11
2018-12-23T19:39:53.388Z,101097.13
2018-12-23T19:43:00.868Z,101102.31
2018-12-23T19:46:08.191Z,101112.27
2018-12-23T19:49:15.540Z,101125.64
2018-12-23T19:52:22.934Z,101119.59
2018-12-23T19:55:19.553Z,101090.63
2018-12-23T20:01:40.552Z,101127.82
2018-12-23T20:04:38.236Z,101133.84
2018-12-23T20:07:45.587Z,101133.00
2018-12-23T20:11:10.849Z,101144.21
2018-12-23T20:13:51.958Z,101150.27
2018-12-23T20:16:59.561Z,101153.28
2018-12-23T20:20:06.877Z,101144.21
2018-12-23T20:23:14.210Z,101151.56
2018-12-23T20:26:21.949Z,101145.08
2018-12-23T20:29:02.866Z,101158.91
2018-12-23T20:32:10.203Z,101155.02
2018-12-23T20:35:18.666Z,101161.08
2018-12-23T20:38:26.107Z,101164.50
2018-12-23T20:41:23.911Z,101162.78
2018-12-23T20:47:57.078Z,101165.37
2018-12-23T20:50:59.814Z,101168.84
2018-12-23T20:54:07.268Z,101163.66
2018-12-23T20:57:19.831Z,101129.02
2018-12-23T21:00:27.194Z,101166.25
2018-12-23T21:03:37.557Z,101175.72
2018-12-23T21:06:44.871Z,101174.84
2018-12-23T21:09:52.429Z,101177.02
2018-12-23T21:13:02.889Z,101181.77
2018-12-23T21:16:10.416Z,101169.21
2018-12-23T21:19:17.761Z,101182.20
2018-12-23T21:22:25.123Z,101173.14
2018-12-23T21:25:31.092Z,101182.62
2018-12-23T21:28:26.160Z,101183.08
2018-12-23T21:31:33.901Z,101189.97
2018-12-23T21:34:41.234Z,101195.16
2018-12-23T21:37:50.603Z,101199.05
2018-12-23T21:40:57.882Z,101190.86
2018-12-23T21:44:05.527Z,101193.00
2018-12-23T21:47:12.857Z,101198.19
2018-12-23T21:50:20.199Z,101201.66
2018-12-23T21:53:26.759Z,101203.80
2018-12-23T21:56:34.119Z,101205.11
2018-12-23T21:59:41.559Z,101202.52
2018-12-23T22:02:48.914Z,101200.81
2018-12-23T22:05:56.240Z,101205.12
2018-12-23T22:09:04.589Z,101204.29
2018-12-23T22:12:11.891Z,101199.92
2018-12-23T22:14:41.824Z,101218.09
2018-12-23T22:17:11.162Z,101175.69
2018-12-23T22:19:40.697Z,101214.64
2018-12-23T22:22:10.028Z,101219.83
2018-12-23T22:24:39.496Z,101217.24
2018-12-23T22:27:08.838Z,101212.05
2018-12-23T22:29:38.558Z,101222.41
2018-12-23T22:32:07.862Z,101222.83
2018-12-23T22:37:25.933Z,101168.73
2018-12-23T22:39:55.265Z,101166.12
2018-12-23T22:42:24.847Z,101213.27
2018-12-23T22:44:54.178Z,101168.64
2018-12-23T22:47:23.646Z,101213.66
2018-12-23T22:52:41.256Z,101215.78
2018-12-23T22:55:10.917Z,101219.63
2018-12-23T22:57:40.194Z,101221.77
2018-12-23T23:02:44.734Z,101218.72
2018-12-23T23:05:15.854Z,101217.81
2018-12-23T23:07:45.190Z,101217.77
2018-12-23T23:10:14.575Z,101223.80
2018-12-23T23:12:44.099Z,101225.50
2018-12-23T23:15:32.835Z,101230.64
2018-12-23T23:18:02.190Z,101221.97
2018-12-23T23:20:31.827Z,101225.41
2018-12-23T23:23:01.125Z,101228.84
2018-12-23T23:25:30.697Z,101232.28
2018-12-23T23:28:00.019Z,101235.69
2018-12-23T23:30:29.734Z,101240.02
2018-12-23T23:32:59.090Z,101246.91
2018-12-23T23:35:28.877Z,101246.45
2018-12-23T23:37:58.265Z,101149.86
2018-12-23T23:40:27.948Z,101249.45
2018-12-23T23:42:57.259Z,101200.86
2018-12-23T23:45:26.879Z,101258.43
2018-12-23T23:47:56.199Z,101212.91
2018-12-23T23:50:25.749Z,101266.62
2018-12-23T23:52:55.058Z,101161.34
2018-12-23T23:55:24.504Z,101275.24
2018-12-23T23:57:53.805Z,101276.08
